sensor_id;sensor_type;location;lat;lon;timestamp;P1;durP1;ratioP1;P2;durP2;ratioP2
12348;SDS011;5974;42.710;27.258;2022-07-23T00:00:05;4.50;;;1.90;;
12348;SDS011;5974;42.710;27.258;2022-07-23T00:02:32;2.03;;;1.87;;
12348;SDS011;5974;42.710;27.258;2022-07-23T00:04:59;3.23;;;1.93;;
12348;SDS011;5974;42.710;27.258;2022-07-23T00:07:25;4.63;;;2.53;;
12348;SDS011;5974;42.710;27.258;2022-07-23T00:09:52;3.40;;;1.93;;
12348;SDS011;5974;42.710;27.258;2022-07-23T00:12:18;3.93;;;2.13;;
12348;SDS011;5974;42.710;27.258;2022-07-23T00:14:46;5.70;;;2.00;;
12348;SDS011;5974;42.710;27.258;2022-07-23T00:17:13;2.33;;;2.13;;
12348;SDS011;5974;42.710;27.258;2022-07-23T00:19:39;4.93;;;2.00;;
12348;SDS011;5974;42.710;27.258;2022-07-23T00:22:06;5.53;;;2.40;;
12348;SDS011;5974;42.710;27.258;2022-07-23T00:24:33;2.50;;;2.30;;
12348;SDS011;5974;42.710;27.258;2022-07-23T00:26:59;7.67;;;2.77;;
12348;SDS011;5974;42.710;27.258;2022-07-23T00:29:26;4.93;;;2.50;;
12348;SDS011;5974;42.710;27.258;2022-07-23T00:31:54;2.90;;;2.30;;
12348;SDS011;5974;42.710;27.258;2022-07-23T00:34:20;3.10;;;2.20;;
12348;SDS011;5974;42.710;27.258;2022-07-23T00:36:47;4.17;;;2.07;;
12348;SDS011;5974;42.710;27.258;2022-07-23T00:39:13;2.87;;;2.07;;
12348;SDS011;5974;42.710;27.258;2022-07-23T00:41:40;3.37;;;2.20;;
12348;SDS011;5974;42.710;27.258;2022-07-23T00:44:14;2.90;;;2.03;;
12348;SDS011;5974;42.710;27.258;2022-07-23T00:46:44;6.37;;;2.00;;
12348;SDS011;5974;42.710;27.258;2022-07-23T00:49:12;3.57;;;2.10;;
12348;SDS011;5974;42.710;27.258;2022-07-23T00:51:39;3.73;;;2.00;;
12348;SDS011;5974;42.710;27.258;2022-07-23T00:54:06;2.90;;;1.93;;
12348;SDS011;5974;42.710;27.258;2022-07-23T00:56:32;4.37;;;2.13;;
12348;SDS011;5974;42.710;27.258;2022-07-23T00:58:59;3.60;;;2.60;;
12348;SDS011;5974;42.710;27.258;2022-07-23T01:01:26;2.67;;;2.40;;
12348;SDS011;5974;42.710;27.258;2022-07-23T01:03:53;2.33;;;2.20;;
12348;SDS011;5974;42.710;27.258;2022-07-23T01:06:21;3.10;;;2.07;;
12348;SDS011;5974;42.710;27.258;2022-07-23T01:08:47;5.75;;;2.10;;
12348;SDS011;5974;42.710;27.258;2022-07-23T01:11:14;2.67;;;1.83;;
12348;SDS011;5974;42.710;27.258;2022-07-23T01:13:41;4.27;;;2.60;;
12348;SDS011;5974;42.710;27.258;2022-07-23T01:16:07;8.07;;;2.20;;
12348;SDS011;5974;42.710;27.258;2022-07-23T01:18:34;2.67;;;1.90;;
12348;SDS011;5974;42.710;27.258;2022-07-23T01:21:00;4.63;;;2.30;;
12348;SDS011;5974;42.710;27.258;2022-07-23T01:23:28;2.43;;;2.23;;
12348;SDS011;5974;42.710;27.258;2022-07-23T01:25:55;2.73;;;2.00;;
12348;SDS011;5974;42.710;27.258;2022-07-23T01:28:22;2.87;;;2.10;;
12348;SDS011;5974;42.710;27.258;2022-07-23T01:30:48;5.93;;;2.40;;
12348;SDS011;5974;42.710;27.258;2022-07-23T01:33:15;4.93;;;2.20;;
12348;SDS011;5974;42.710;27.258;2022-07-23T01:35:41;3.60;;;2.20;;
12348;SDS011;5974;42.710;27.258;2022-07-23T01:38:08;4.50;;;2.20;;
12348;SDS011;5974;42.710;27.258;2022-07-23T01:40:36;2.17;;;1.97;;
12348;SDS011;5974;42.710;27.258;2022-07-23T01:43:02;3.33;;;2.10;;
12348;SDS011;5974;42.710;27.258;2022-07-23T01:45:29;2.80;;;2.20;;
12348;SDS011;5974;42.710;27.258;2022-07-23T01:47:56;3.43;;;2.20;;
12348;SDS011;5974;42.710;27.258;2022-07-23T01:50:22;4.73;;;2.20;;
12348;SDS011;5974;42.710;27.258;2022-07-23T01:52:49;2.93;;;1.90;;
12348;SDS011;5974;42.710;27.258;2022-07-23T01:55:15;3.37;;;2.00;;
12348;SDS011;5974;42.710;27.258;2022-07-23T01:57:43;1.97;;;1.80;;
12348;SDS011;5974;42.710;27.258;2022-07-23T02:00:10;4.43;;;2.00;;
12348;SDS011;5974;42.710;27.258;2022-07-23T02:02:37;3.10;;;2.17;;
12348;SDS011;5974;42.710;27.258;2022-07-23T02:05:04;7.20;;;2.37;;
12348;SDS011;5974;42.710;27.258;2022-07-23T02:07:31;3.10;;;2.27;;
12348;SDS011;5974;42.710;27.258;2022-07-23T02:09:57;4.10;;;2.17;;
12348;SDS011;5974;42.710;27.258;2022-07-23T02:12:24;4.30;;;1.97;;
12348;SDS011;5974;42.710;27.258;2022-07-23T02:14:52;5.17;;;2.10;;
12348;SDS011;5974;42.710;27.258;2022-07-23T02:17:18;1.83;;;1.73;;
12348;SDS011;5974;42.710;27.258;2022-07-23T02:19:45;3.87;;;1.90;;
12348;SDS011;5974;42.710;27.258;2022-07-23T02:22:11;2.27;;;2.07;;
12348;SDS011;5974;42.710;27.258;2022-07-23T02:24:38;6.10;;;2.80;;
12348;SDS011;5974;42.710;27.258;2022-07-23T02:27:05;2.27;;;2.03;;
12348;SDS011;5974;42.710;27.258;2022-07-23T02:29:31;5.63;;;2.50;;
12348;SDS011;5974;42.710;27.258;2022-07-23T02:32:02;2.63;;;2.27;;
12348;SDS011;5974;42.710;27.258;2022-07-23T02:34:29;3.97;;;2.23;;
12348;SDS011;5974;42.710;27.258;2022-07-23T02:36:55;3.63;;;2.00;;
12348;SDS011;5974;42.710;27.258;2022-07-23T02:39:22;4.23;;;2.40;;
12348;SDS011;5974;42.710;27.258;2022-07-23T02:41:48;4.43;;;2.37;;
12348;SDS011;5974;42.710;27.258;2022-07-23T02:44:15;4.10;;;2.17;;
12348;SDS011;5974;42.710;27.258;2022-07-23T02:46:41;3.87;;;2.33;;
12348;SDS011;5974;42.710;27.258;2022-07-23T02:49:09;2.57;;;2.10;;
12348;SDS011;5974;42.710;27.258;2022-07-23T02:51:36;4.97;;;2.33;;
12348;SDS011;5974;42.710;27.258;2022-07-23T02:54:02;5.53;;;2.10;;
12348;SDS011;5974;42.710;27.258;2022-07-23T02:56:29;5.60;;;2.70;;
12348;SDS011;5974;42.710;27.258;2022-07-23T02:58:56;5.80;;;2.17;;
12348;SDS011;5974;42.710;27.258;2022-07-23T03:01:22;4.43;;;2.30;;
12348;SDS011;5974;42.710;27.258;2022-07-23T03:03:49;4.10;;;2.47;;
12348;SDS011;5974;42.710;27.258;2022-07-23T03:06:17;4.03;;;2.30;;
12348;SDS011;5974;42.710;27.258;2022-07-23T03:08:44;4.10;;;2.10;;
12348;SDS011;5974;42.710;27.258;2022-07-23T03:11:10;3.03;;;2.40;;
12348;SDS011;5974;42.710;27.258;2022-07-23T03:13:37;4.03;;;2.30;;
12348;SDS011;5974;42.710;27.258;2022-07-23T03:16:04;3.63;;;2.40;;
12348;SDS011;5974;42.710;27.258;2022-07-23T03:18:31;5.20;;;2.40;;
12348;SDS011;5974;42.710;27.258;2022-07-23T03:20:57;4.93;;;2.30;;
12348;SDS011;5974;42.710;27.258;2022-07-23T03:23:25;2.70;;;2.13;;
12348;SDS011;5974;42.710;27.258;2022-07-23T03:25:52;6.30;;;2.90;;
12348;SDS011;5974;42.710;27.258;2022-07-23T03:28:18;3.67;;;2.37;;
12348;SDS011;5974;42.710;27.258;2022-07-23T03:30:45;3.87;;;2.40;;
12348;SDS011;5974;42.710;27.258;2022-07-23T03:33:12;3.43;;;2.40;;
12348;SDS011;5974;42.710;27.258;2022-07-23T03:35:39;6.00;;;2.17;;
12348;SDS011;5974;42.710;27.258;2022-07-23T03:38:05;7.43;;;2.77;;
12348;SDS011;5974;42.710;27.258;2022-07-23T03:40:33;6.97;;;2.33;;
12348;SDS011;5974;42.710;27.258;2022-07-23T03:43:00;11.70;;;2.30;;
12348;SDS011;5974;42.710;27.258;2022-07-23T03:45:27;9.43;;;2.73;;
12348;SDS011;5974;42.710;27.258;2022-07-23T03:47:53;5.47;;;2.50;;
12348;SDS011;5974;42.710;27.258;2022-07-23T03:50:20;9.60;;;2.53;;
12348;SDS011;5974;42.710;27.258;2022-07-23T03:52:47;8.10;;;2.53;;
12348;SDS011;5974;42.710;27.258;2022-07-23T03:55:13;2.57;;;2.10;;
12348;SDS011;5974;42.710;27.258;2022-07-23T03:57:41;5.20;;;2.20;;
12348;SDS011;5974;42.710;27.258;2022-07-23T04:00:08;3.63;;;2.50;;
12348;SDS011;5974;42.710;27.258;2022-07-23T04:02:35;4.73;;;2.40;;
12348;SDS011;5974;42.710;27.258;2022-07-23T04:05:02;7.17;;;3.37;;
12348;SDS011;5974;42.710;27.258;2022-07-23T04:07:28;4.33;;;2.97;;
12348;SDS011;5974;42.710;27.258;2022-07-23T04:09:55;3.50;;;2.90;;
12348;SDS011;5974;42.710;27.258;2022-07-23T04:12:22;6.10;;;2.60;;
12348;SDS011;5974;42.710;27.258;2022-07-23T04:14:50;7.20;;;2.33;;
12348;SDS011;5974;42.710;27.258;2022-07-23T04:17:16;5.23;;;2.70;;
12348;SDS011;5974;42.710;27.258;2022-07-23T04:19:43;8.43;;;2.30;;
12348;SDS011;5974;42.710;27.258;2022-07-23T04:22:10;4.73;;;2.20;;
12348;SDS011;5974;42.710;27.258;2022-07-23T04:24:37;3.43;;;2.67;;
12348;SDS011;5974;42.710;27.258;2022-07-23T04:27:03;5.93;;;2.77;;
12348;SDS011;5974;42.710;27.258;2022-07-23T04:29:30;3.90;;;2.63;;
12348;SDS011;5974;42.710;27.258;2022-07-23T04:31:58;6.77;;;2.50;;
12348;SDS011;5974;42.710;27.258;2022-07-23T04:34:25;3.40;;;2.70;;
12348;SDS011;5974;42.710;27.258;2022-07-23T04:36:51;4.37;;;2.50;;
12348;SDS011;5974;42.710;27.258;2022-07-23T04:39:18;5.97;;;2.70;;
12348;SDS011;5974;42.710;27.258;2022-07-23T04:41:45;8.67;;;2.47;;
12348;SDS011;5974;42.710;27.258;2022-07-23T04:44:11;8.98;;;2.78;;
12348;SDS011;5974;42.710;27.258;2022-07-23T04:46:38;7.05;;;2.63;;
12348;SDS011;5974;42.710;27.258;2022-07-23T04:49:06;7.03;;;2.40;;
12348;SDS011;5974;42.710;27.258;2022-07-23T04:51:32;3.67;;;2.42;;
12348;SDS011;5974;42.710;27.258;2022-07-23T04:53:59;4.60;;;2.40;;
12348;SDS011;5974;42.710;27.258;2022-07-23T04:56:25;6.75;;;2.80;;
12348;SDS011;5974;42.710;27.258;2022-07-23T04:58:52;9.70;;;3.03;;
12348;SDS011;5974;42.710;27.258;2022-07-23T05:01:19;5.80;;;2.80;;
12348;SDS011;5974;42.710;27.258;2022-07-23T05:03:45;7.05;;;3.08;;
12348;SDS011;5974;42.710;27.258;2022-07-23T05:06:14;6.13;;;2.90;;
12348;SDS011;5974;42.710;27.258;2022-07-23T05:08:41;8.07;;;3.13;;
12348;SDS011;5974;42.710;27.258;2022-07-23T05:11:08;11.68;;;3.30;;
12348;SDS011;5974;42.710;27.258;2022-07-23T05:13:34;7.32;;;3.45;;
12348;SDS011;5974;42.710;27.258;2022-07-23T05:16:01;5.60;;;3.42;;
12348;SDS011;5974;42.710;27.258;2022-07-23T05:18:27;4.05;;;3.08;;
12348;SDS011;5974;42.710;27.258;2022-07-23T05:20:54;11.35;;;3.67;;
12348;SDS011;5974;42.710;27.258;2022-07-23T05:23:22;6.57;;;3.60;;
12348;SDS011;5974;42.710;27.258;2022-07-23T05:25:48;8.93;;;3.40;;
12348;SDS011;5974;42.710;27.258;2022-07-23T05:28:16;8.98;;;3.60;;
12348;SDS011;5974;42.710;27.258;2022-07-23T05:30:42;6.45;;;3.40;;
12348;SDS011;5974;42.710;27.258;2022-07-23T05:33:09;7.97;;;3.38;;
12348;SDS011;5974;42.710;27.258;2022-07-23T05:35:35;6.30;;;3.40;;
12348;SDS011;5974;42.710;27.258;2022-07-23T05:38:02;6.90;;;3.70;;
12348;SDS011;5974;42.710;27.258;2022-07-23T05:40:30;9.77;;;3.92;;
12348;SDS011;5974;42.710;27.258;2022-07-23T05:42:58;7.88;;;4.28;;
12348;SDS011;5974;42.710;27.258;2022-07-23T05:45:24;6.32;;;3.90;;
12348;SDS011;5974;42.710;27.258;2022-07-23T05:47:51;10.07;;;3.78;;
12348;SDS011;5974;42.710;27.258;2022-07-23T05:50:17;6.43;;;2.70;;
12348;SDS011;5974;42.710;27.258;2022-07-23T05:52:44;6.88;;;2.50;;
12348;SDS011;5974;42.710;27.258;2022-07-23T05:55:12;4.15;;;2.67;;
12348;SDS011;5974;42.710;27.258;2022-07-23T05:57:40;6.78;;;2.90;;
12348;SDS011;5974;42.710;27.258;2022-07-23T06:00:07;4.07;;;3.20;;
12348;SDS011;5974;42.710;27.258;2022-07-23T06:02:34;4.32;;;3.10;;
12348;SDS011;5974;42.710;27.258;2022-07-23T06:05:01;4.07;;;2.80;;
12348;SDS011;5974;42.710;27.258;2022-07-23T06:07:27;5.88;;;2.63;;
12348;SDS011;5974;42.710;27.258;2022-07-23T06:09:54;9.27;;;2.90;;
12348;SDS011;5974;42.710;27.258;2022-07-23T06:12:20;5.80;;;2.85;;
12348;SDS011;5974;42.710;27.258;2022-07-23T06:14:48;3.40;;;2.60;;
12348;SDS011;5974;42.710;27.258;2022-07-23T06:17:17;8.95;;;2.80;;
12348;SDS011;5974;42.710;27.258;2022-07-23T06:19:43;3.42;;;3.00;;
12348;SDS011;5974;42.710;27.258;2022-07-23T06:22:10;6.43;;;3.20;;
12348;SDS011;5974;42.710;27.258;2022-07-23T06:24:36;6.15;;;2.95;;
12348;SDS011;5974;42.710;27.258;2022-07-23T06:27:03;4.28;;;2.55;;
12348;SDS011;5974;42.710;27.258;2022-07-23T06:29:30;6.93;;;2.65;;
12348;SDS011;5974;42.710;27.258;2022-07-23T06:31:58;2.55;;;2.30;;
12348;SDS011;5974;42.710;27.258;2022-07-23T06:34:24;2.97;;;2.78;;
12348;SDS011;5974;42.710;27.258;2022-07-23T06:36:51;4.32;;;2.50;;
12348;SDS011;5974;42.710;27.258;2022-07-23T06:39:17;2.58;;;2.25;;
12348;SDS011;5974;42.710;27.258;2022-07-23T06:41:44;4.95;;;2.20;;
12348;SDS011;5974;42.710;27.258;2022-07-23T06:44:10;4.47;;;2.55;;
12348;SDS011;5974;42.710;27.258;2022-07-23T06:46:37;3.22;;;2.50;;
12348;SDS011;5974;42.710;27.258;2022-07-23T06:49:05;3.17;;;2.47;;
12348;SDS011;5974;42.710;27.258;2022-07-23T06:51:32;5.93;;;2.60;;
12348;SDS011;5974;42.710;27.258;2022-07-23T06:53:58;4.18;;;2.63;;
12348;SDS011;5974;42.710;27.258;2022-07-23T06:56:25;5.43;;;2.50;;
12348;SDS011;5974;42.710;27.258;2022-07-23T06:58:51;4.97;;;2.55;;
12348;SDS011;5974;42.710;27.258;2022-07-23T07:01:18;4.47;;;2.45;;
12348;SDS011;5974;42.710;27.258;2022-07-23T07:03:45;4.80;;;2.33;;
12348;SDS011;5974;42.710;27.258;2022-07-23T07:06:13;5.13;;;2.50;;
12348;SDS011;5974;42.710;27.258;2022-07-23T07:08:40;6.35;;;2.65;;
12348;SDS011;5974;42.710;27.258;2022-07-23T07:11:08;5.35;;;2.47;;
12348;SDS011;5974;42.710;27.258;2022-07-23T07:13:34;5.82;;;2.95;;
12348;SDS011;5974;42.710;27.258;2022-07-23T07:16:01;9.25;;;3.00;;
12348;SDS011;5974;42.710;27.258;2022-07-23T07:18:28;6.78;;;3.42;;
12348;SDS011;5974;42.710;27.258;2022-07-23T07:20:54;4.40;;;2.88;;
12348;SDS011;5974;42.710;27.258;2022-07-23T07:23:22;4.55;;;3.00;;
12348;SDS011;5974;42.710;27.258;2022-07-23T07:25:49;3.88;;;2.78;;
12348;SDS011;5974;42.710;27.258;2022-07-23T07:28:16;5.53;;;2.45;;
12348;SDS011;5974;42.710;27.258;2022-07-23T07:30:42;6.05;;;2.75;;
12348;SDS011;5974;42.710;27.258;2022-07-23T07:33:09;8.10;;;2.72;;
12348;SDS011;5974;42.710;27.258;2022-07-23T07:35:35;3.13;;;2.40;;
12348;SDS011;5974;42.710;27.258;2022-07-23T07:38:02;5.80;;;2.70;;
12348;SDS011;5974;42.710;27.258;2022-07-23T07:40:30;6.15;;;2.63;;
12348;SDS011;5974;42.710;27.258;2022-07-23T07:42:57;7.38;;;2.67;;
12348;SDS011;5974;42.710;27.258;2022-07-23T07:45:23;4.97;;;2.58;;
12348;SDS011;5974;42.710;27.258;2022-07-23T07:47:50;6.32;;;2.60;;
12348;SDS011;5974;42.710;27.258;2022-07-23T07:50:17;4.53;;;2.70;;
12348;SDS011;5974;42.710;27.258;2022-07-23T07:52:44;6.15;;;2.50;;
12348;SDS011;5974;42.710;27.258;2022-07-23T07:55:10;3.45;;;2.30;;
12348;SDS011;5974;42.710;27.258;2022-07-23T07:57:39;6.20;;;2.60;;
12348;SDS011;5974;42.710;27.258;2022-07-23T08:00:06;4.80;;;2.65;;
12348;SDS011;5974;42.710;27.258;2022-07-23T08:02:39;5.00;;;2.50;;
12348;SDS011;5974;42.710;27.258;2022-07-23T08:05:06;5.85;;;2.53;;
12348;SDS011;5974;42.710;27.258;2022-07-23T08:07:32;8.13;;;2.60;;
12348;SDS011;5974;42.710;27.258;2022-07-23T08:09:59;4.72;;;2.80;;
12348;SDS011;5974;42.710;27.258;2022-07-23T08:12:25;5.10;;;2.80;;
12348;SDS011;5974;42.710;27.258;2022-07-23T08:14:53;4.65;;;2.53;;
12348;SDS011;5974;42.710;27.258;2022-07-23T08:17:20;5.47;;;2.47;;
12348;SDS011;5974;42.710;27.258;2022-07-23T08:19:46;3.83;;;2.70;;
12348;SDS011;5974;42.710;27.258;2022-07-23T08:22:13;3.20;;;2.90;;
12348;SDS011;5974;42.710;27.258;2022-07-23T08:24:40;4.57;;;2.35;;
12348;SDS011;5974;42.710;27.258;2022-07-23T08:27:06;5.07;;;2.80;;
12348;SDS011;5974;42.710;27.258;2022-07-23T08:29:33;3.70;;;2.58;;
12348;SDS011;5974;42.710;27.258;2022-07-23T08:32:01;5.75;;;3.05;;
12348;SDS011;5974;42.710;27.258;2022-07-23T08:34:27;3.90;;;3.10;;
12348;SDS011;5974;42.710;27.258;2022-07-23T08:36:54;8.27;;;3.08;;
12348;SDS011;5974;42.710;27.258;2022-07-23T08:39:21;3.42;;;2.80;;
12348;SDS011;5974;42.710;27.258;2022-07-23T08:41:47;4.13;;;2.70;;
12348;SDS011;5974;42.710;27.258;2022-07-23T08:44:15;8.88;;;2.83;;
12348;SDS011;5974;42.710;27.258;2022-07-23T08:46:43;4.18;;;2.67;;
12348;SDS011;5974;42.710;27.258;2022-07-23T08:49:11;4.10;;;2.63;;
12348;SDS011;5974;42.710;27.258;2022-07-23T08:51:38;5.03;;;2.65;;
12348;SDS011;5974;42.710;27.258;2022-07-23T08:54:05;4.10;;;2.80;;
12348;SDS011;5974;42.710;27.258;2022-07-23T08:56:32;4.47;;;2.83;;
12348;SDS011;5974;42.710;27.258;2022-07-23T08:58:58;5.40;;;2.78;;
12348;SDS011;5974;42.710;27.258;2022-07-23T09:01:25;3.75;;;2.83;;
12348;SDS011;5974;42.710;27.258;2022-07-23T09:03:52;3.30;;;2.42;;
12348;SDS011;5974;42.710;27.258;2022-07-23T09:06:20;6.22;;;2.78;;
12348;SDS011;5974;42.710;27.258;2022-07-23T09:08:46;9.40;;;2.90;;
12348;SDS011;5974;42.710;27.258;2022-07-23T09:11:15;9.57;;;3.03;;
12348;SDS011;5974;42.710;27.258;2022-07-23T09:13:42;5.13;;;2.55;;
12348;SDS011;5974;42.710;27.258;2022-07-23T09:16:12;5.65;;;2.88;;
12348;SDS011;5974;42.710;27.258;2022-07-23T09:18:42;2.90;;;2.70;;
12348;SDS011;5974;42.710;27.258;2022-07-23T09:23:56;4.15;;;2.80;;
12348;SDS011;5974;42.710;27.258;2022-07-23T09:26:30;5.35;;;2.60;;
12348;SDS011;5974;42.710;27.258;2022-07-23T09:28:57;3.08;;;2.53;;
12348;SDS011;5974;42.710;27.258;2022-07-23T09:31:24;3.63;;;2.63;;
12348;SDS011;5974;42.710;27.258;2022-07-23T09:34:01;7.72;;;3.00;;
12348;SDS011;5974;42.710;27.258;2022-07-23T09:36:32;6.75;;;2.90;;
12348;SDS011;5974;42.710;27.258;2022-07-23T09:39:00;4.90;;;2.88;;
12348;SDS011;5974;42.710;27.258;2022-07-23T09:41:27;4.55;;;3.13;;
12348;SDS011;5974;42.710;27.258;2022-07-23T09:44:05;5.60;;;3.20;;
12348;SDS011;5974;42.710;27.258;2022-07-23T09:46:32;5.90;;;3.03;;
12348;SDS011;5974;42.710;27.258;2022-07-23T09:48:59;4.45;;;2.70;;
12348;SDS011;5974;42.710;27.258;2022-07-23T09:51:40;8.80;;;2.97;;
12348;SDS011;5974;42.710;27.258;2022-07-23T09:54:19;5.15;;;3.15;;
12348;SDS011;5974;42.710;27.258;2022-07-23T09:56:46;6.07;;;3.05;;
12348;SDS011;5974;42.710;27.258;2022-07-23T09:59:13;4.80;;;2.92;;
12348;SDS011;5974;42.710;27.258;2022-07-23T10:01:42;4.15;;;2.92;;
12348;SDS011;5974;42.710;27.258;2022-07-23T10:04:09;3.40;;;2.95;;
12348;SDS011;5974;42.710;27.258;2022-07-23T10:06:37;8.10;;;3.08;;
12348;SDS011;5974;42.710;27.258;2022-07-23T10:09:04;5.40;;;2.90;;
12348;SDS011;5974;42.710;27.258;2022-07-23T10:11:32;6.93;;;3.15;;
12348;SDS011;5974;42.710;27.258;2022-07-23T10:13:59;4.90;;;3.00;;
12348;SDS011;5974;42.710;27.258;2022-07-23T10:16:28;3.50;;;2.92;;
12348;SDS011;5974;42.710;27.258;2022-07-23T10:18:54;5.43;;;2.83;;
12348;SDS011;5974;42.710;27.258;2022-07-23T10:21:25;5.10;;;3.13;;
12348;SDS011;5974;42.710;27.258;2022-07-23T10:23:58;4.03;;;3.20;;
12348;SDS011;5974;42.710;27.258;2022-07-23T10:26:29;5.03;;;3.13;;
12348;SDS011;5974;42.710;27.258;2022-07-23T10:29:05;3.50;;;3.15;;
12348;SDS011;5974;42.710;27.258;2022-07-23T10:31:35;6.72;;;3.38;;
12348;SDS011;5974;42.710;27.258;2022-07-23T10:34:07;5.13;;;2.70;;
12348;SDS011;5974;42.710;27.258;2022-07-23T10:36:39;5.30;;;2.95;;
12348;SDS011;5974;42.710;27.258;2022-07-23T10:39:10;4.53;;;3.25;;
12348;SDS011;5974;42.710;27.258;2022-07-23T10:41:41;5.10;;;2.78;;
12348;SDS011;5974;42.710;27.258;2022-07-23T10:44:10;3.38;;;3.00;;
12348;SDS011;5974;42.710;27.258;2022-07-23T10:49:25;4.38;;;2.85;;
12348;SDS011;5974;42.710;27.258;2022-07-23T10:54:37;5.35;;;2.75;;
12348;SDS011;5974;42.710;27.258;2022-07-23T10:57:04;5.20;;;3.10;;
12348;SDS011;5974;42.710;27.258;2022-07-23T11:02:23;3.53;;;2.50;;
12348;SDS011;5974;42.710;27.258;2022-07-23T11:04:51;6.38;;;2.78;;
12348;SDS011;5974;42.710;27.258;2022-07-23T11:07:18;10.60;;;2.85;;
12348;SDS011;5974;42.710;27.258;2022-07-23T11:09:46;5.18;;;2.83;;
12348;SDS011;5974;42.710;27.258;2022-07-23T11:12:34;5.28;;;2.92;;
12348;SDS011;5974;42.710;27.258;2022-07-23T11:15:03;3.97;;;2.60;;
12348;SDS011;5974;42.710;27.258;2022-07-23T11:17:31;4.00;;;2.88;;
12348;SDS011;5974;42.710;27.258;2022-07-23T11:20:15;5.28;;;2.83;;
12348;SDS011;5974;42.710;27.258;2022-07-23T11:22:47;2.88;;;2.67;;
12348;SDS011;5974;42.710;27.258;2022-07-23T11:25:28;4.07;;;2.72;;
12348;SDS011;5974;42.710;27.258;2022-07-23T11:28:07;3.55;;;2.65;;
12348;SDS011;5974;42.710;27.258;2022-07-23T11:30:38;27.88;;;3.75;;
12348;SDS011;5974;42.710;27.258;2022-07-23T11:33:19;4.05;;;2.92;;
12348;SDS011;5974;42.710;27.258;2022-07-23T11:35:46;5.45;;;2.72;;
12348;SDS011;5974;42.710;27.258;2022-07-23T11:38:15;4.97;;;2.72;;
12348;SDS011;5974;42.710;27.258;2022-07-23T11:40:43;8.93;;;2.65;;
12348;SDS011;5974;42.710;27.258;2022-07-23T11:43:10;8.57;;;3.47;;
12348;SDS011;5974;42.710;27.258;2022-07-23T11:45:37;5.55;;;2.75;;
12348;SDS011;5974;42.710;27.258;2022-07-23T11:48:06;4.20;;;3.30;;
12348;SDS011;5974;42.710;27.258;2022-07-23T11:50:36;9.20;;;3.50;;
12348;SDS011;5974;42.710;27.258;2022-07-23T11:53:03;4.50;;;3.13;;
12348;SDS011;5974;42.710;27.258;2022-07-23T11:55:29;5.53;;;2.85;;
12348;SDS011;5974;42.710;27.258;2022-07-23T11:57:56;3.38;;;2.67;;
12348;SDS011;5974;42.710;27.258;2022-07-23T12:00:24;3.97;;;2.60;;
12348;SDS011;5974;42.710;27.258;2022-07-23T12:02:52;8.30;;;3.22;;
12348;SDS011;5974;42.710;27.258;2022-07-23T12:05:19;5.55;;;3.10;;
12348;SDS011;5974;42.710;27.258;2022-07-23T12:07:48;6.63;;;2.97;;
12348;SDS011;5974;42.710;27.258;2022-07-23T12:10:17;3.50;;;3.20;;
12348;SDS011;5974;42.710;27.258;2022-07-23T12:12:44;4.38;;;3.10;;
12348;SDS011;5974;42.710;27.258;2022-07-23T12:15:12;3.63;;;3.05;;
12348;SDS011;5974;42.710;27.258;2022-07-23T12:17:39;4.88;;;3.28;;
12348;SDS011;5974;42.710;27.258;2022-07-23T12:20:07;4.28;;;2.55;;
12348;SDS011;5974;42.710;27.258;2022-07-23T12:22:35;4.45;;;2.83;;
12348;SDS011;5974;42.710;27.258;2022-07-23T12:25:05;6.30;;;3.08;;
12348;SDS011;5974;42.710;27.258;2022-07-23T12:27:32;3.35;;;2.80;;
12348;SDS011;5974;42.710;27.258;2022-07-23T12:29:59;3.95;;;2.92;;
12348;SDS011;5974;42.710;27.258;2022-07-23T12:32:42;8.57;;;3.17;;
12348;SDS011;5974;42.710;27.258;2022-07-23T12:35:09;6.63;;;3.17;;
12348;SDS011;5974;42.710;27.258;2022-07-23T12:37:37;3.03;;;2.83;;
12348;SDS011;5974;42.710;27.258;2022-07-23T12:40:25;5.38;;;3.00;;
12348;SDS011;5974;42.710;27.258;2022-07-23T12:42:52;5.45;;;3.50;;
12348;SDS011;5974;42.710;27.258;2022-07-23T12:45:19;3.90;;;3.22;;
12348;SDS011;5974;42.710;27.258;2022-07-23T12:50:35;3.35;;;2.83;;
12348;SDS011;5974;42.710;27.258;2022-07-23T12:53:05;3.30;;;2.92;;
12348;SDS011;5974;42.710;27.258;2022-07-23T12:55:33;6.10;;;2.75;;
12348;SDS011;5974;42.710;27.258;2022-07-23T12:58:04;5.00;;;2.72;;
12348;SDS011;5974;42.710;27.258;2022-07-23T13:00:31;3.53;;;2.70;;
12348;SDS011;5974;42.710;27.258;2022-07-23T13:02:57;4.63;;;3.08;;
12348;SDS011;5974;42.710;27.258;2022-07-23T13:05:24;5.10;;;3.22;;
12348;SDS011;5974;42.710;27.258;2022-07-23T13:07:51;3.10;;;2.72;;
12348;SDS011;5974;42.710;27.258;2022-07-23T13:10:17;5.95;;;3.05;;
12348;SDS011;5974;42.710;27.258;2022-07-23T13:12:45;7.53;;;3.10;;
12348;SDS011;5974;42.710;27.258;2022-07-23T13:15:12;7.47;;;2.95;;
12348;SDS011;5974;42.710;27.258;2022-07-23T13:17:38;3.92;;;3.33;;
12348;SDS011;5974;42.710;27.258;2022-07-23T13:20:05;4.32;;;3.75;;
12348;SDS011;5974;42.710;27.258;2022-07-23T13:22:32;4.57;;;2.90;;
12348;SDS011;5974;42.710;27.258;2022-07-23T13:24:59;5.63;;;3.25;;
12348;SDS011;5974;42.710;27.258;2022-07-23T13:27:25;3.95;;;2.55;;
12348;SDS011;5974;42.710;27.258;2022-07-23T13:29:53;3.38;;;2.55;;
12348;SDS011;5974;42.710;27.258;2022-07-23T13:32:20;3.30;;;2.70;;
12348;SDS011;5974;42.710;27.258;2022-07-23T13:34:46;3.40;;;3.00;;
12348;SDS011;5974;42.710;27.258;2022-07-23T13:37:13;4.75;;;3.15;;
12348;SDS011;5974;42.710;27.258;2022-07-23T13:39:39;5.07;;;2.70;;
12348;SDS011;5974;42.710;27.258;2022-07-23T13:42:06;4.07;;;2.97;;
12348;SDS011;5974;42.710;27.258;2022-07-23T13:44:32;3.15;;;2.90;;
12348;SDS011;5974;42.710;27.258;2022-07-23T13:47:00;6.35;;;3.00;;
12348;SDS011;5974;42.710;27.258;2022-07-23T13:49:27;4.25;;;3.10;;
12348;SDS011;5974;42.710;27.258;2022-07-23T13:51:56;4.50;;;3.20;;
12348;SDS011;5974;42.710;27.258;2022-07-23T13:54:23;4.13;;;2.58;;
12348;SDS011;5974;42.710;27.258;2022-07-23T13:56:49;3.30;;;3.00;;
12348;SDS011;5974;42.710;27.258;2022-07-23T13:59:16;3.60;;;2.83;;
12348;SDS011;5974;42.710;27.258;2022-07-23T14:01:43;3.17;;;2.83;;
12348;SDS011;5974;42.710;27.258;2022-07-23T14:04:11;3.42;;;3.13;;
12348;SDS011;5974;42.710;27.258;2022-07-23T14:06:38;4.30;;;2.80;;
12348;SDS011;5974;42.710;27.258;2022-07-23T14:09:04;3.83;;;3.05;;
12348;SDS011;5974;42.710;27.258;2022-07-23T14:11:31;5.15;;;3.47;;
12348;SDS011;5974;42.710;27.258;2022-07-23T14:13:58;9.00;;;3.22;;
12348;SDS011;5974;42.710;27.258;2022-07-23T14:16:25;5.43;;;3.20;;
12348;SDS011;5974;42.710;27.258;2022-07-23T14:18:52;5.38;;;2.90;;
12348;SDS011;5974;42.710;27.258;2022-07-23T14:21:20;5.65;;;2.90;;
12348;SDS011;5974;42.710;27.258;2022-07-23T14:23:47;3.55;;;3.10;;
12348;SDS011;5974;42.710;27.258;2022-07-23T14:26:14;4.03;;;3.10;;
12348;SDS011;5974;42.710;27.258;2022-07-23T14:28:40;4.25;;;2.75;;
12348;SDS011;5974;42.710;27.258;2022-07-23T14:31:07;5.00;;;3.00;;
12348;SDS011;5974;42.710;27.258;2022-07-23T14:33:33;3.05;;;2.85;;
12348;SDS011;5974;42.710;27.258;2022-07-23T14:36:00;2.80;;;2.63;;
12348;SDS011;5974;42.710;27.258;2022-07-23T14:38:28;4.55;;;3.03;;
12348;SDS011;5974;42.710;27.258;2022-07-23T14:40:55;5.13;;;3.00;;
12348;SDS011;5974;42.710;27.258;2022-07-23T14:43:22;3.88;;;3.00;;
12348;SDS011;5974;42.710;27.258;2022-07-23T14:45:48;5.72;;;3.30;;
12348;SDS011;5974;42.710;27.258;2022-07-23T14:48:15;4.65;;;3.20;;
12348;SDS011;5974;42.710;27.258;2022-07-23T14:50:41;3.08;;;2.80;;
12348;SDS011;5974;42.710;27.258;2022-07-23T14:53:08;6.78;;;3.10;;
12348;SDS011;5974;42.710;27.258;2022-07-23T14:55:36;4.10;;;2.97;;
12348;SDS011;5974;42.710;27.258;2022-07-23T14:58:03;4.25;;;2.83;;
12348;SDS011;5974;42.710;27.258;2022-07-23T15:00:29;6.85;;;3.53;;
12348;SDS011;5974;42.710;27.258;2022-07-23T15:02:56;6.27;;;3.00;;